Time;durP1;ratioP1;P1;durP2;ratioP2;P2;SDS_P1;SDS_P2;PMS_P1;PMS_P2;Temp;Humidity;BMP_temperature;BMP_pressure;BME280_temperature;BME280_humidity;BME280_pressure;Samples;Min_cycle;Max_cycle;Signal;HPM_P1;HPM_P2
2021/01/27 00:02:30;;;;;;;104.97;32.33;;;-3.10;99.90;;;;;;4330498;28;660805;-55
2021/01/27 00:05:20;;;;;;;95.45;32.38;;;-3.00;99.90;;;;;;4363930;28;663164;-52
2021/01/27 00:08:07;;;;;;;105.47;34.20;;;-3.00;99.90;;;;;;4345012;28;661411;-49
2021/01/27 00:10:54;;;;;;;49.28;18.00;;;-3.00;99.90;;;;;;4334882;28;662412;-56
2021/01/27 00:13:42;;;;;;;93.43;32.33;;;-2.90;99.90;;;;;;4370062;28;661764;-55
2021/01/27 00:16:29;;;;;;;82.17;28.57;;;-2.90;99.90;;;;;;4347899;28;660610;-55
2021/01/27 00:19:16;;;;;;;109.30;34.60;;;-2.90;99.90;;;;;;4353985;28;662925;-54
2021/01/27 00:22:03;;;;;;;45.73;14.40;;;-3.00;99.90;;;;;;4361847;28;661506;-53
2021/01/27 00:24:50;;;;;;;97.80;31.33;;;-2.80;99.90;;;;;;4346973;28;660438;-53
2021/01/27 00:27:37;;;;;;;95.80;33.17;;;-2.70;99.90;;;;;;4362044;28;661581;-51
2021/01/27 00:30:26;;;;;;;97.50;32.73;;;-2.90;99.90;;;;;;4338832;28;661979;-54
2021/01/27 00:33:14;;;;;;;94.03;31.30;;;-2.90;99.90;;;;;;4351558;28;661377;-56
2021/01/27 00:36:01;;;;;;;106.50;33.83;;;-2.80;99.90;;;;;;4325661;28;661659;-51
2021/01/27 00:38:48;;;;;;;96.47;31.43;;;-2.80;99.90;;;;;;4373949;28;661374;-53
2021/01/27 00:41:35;;;;;;;92.53;32.33;;;-2.80;99.90;;;;;;4343020;28;661468;-52
2021/01/27 00:44:22;;;;;;;51.40;15.70;;;-2.90;99.90;;;;;;4364715;28;662698;-52
2021/01/27 00:47:10;;;;;;;93.10;33.07;;;-2.70;99.90;;;;;;4345073;28;661426;-57
2021/01/27 00:49:57;;;;;;;54.53;18.55;;;-2.80;99.90;;;;;;4370763;28;663567;-54
2021/01/27 00:52:44;;;;;;;95.03;32.47;;;-2.70;99.90;;;;;;4334936;28;661316;-57
2021/01/27 00:55:31;;;;;;;81.47;30.03;;;-2.80;99.90;;;;;;4363338;28;661966;-54
2021/01/27 00:58:18;;;;;;;97.37;34.30;;;-2.60;99.90;;;;;;4353887;28;660554;-50
2021/01/27 01:01:05;;;;;;;90.67;32.87;;;-2.60;99.90;;;;;;4329255;28;661557;-54
2021/01/27 01:03:53;;;;;;;99.28;33.72;;;-2.70;99.90;;;;;;4350366;28;662470;-55
2021/01/27 01:06:40;;;;;;;104.53;31.20;;;-2.80;99.90;;;;;;4349447;28;660601;-54
2021/01/27 01:09:27;;;;;;;125.63;35.97;;;-2.70;99.90;;;;;;4362759;28;663168;-54
2021/01/27 01:12:14;;;;;;;59.33;18.67;;;-2.80;99.90;;;;;;4354717;28;662331;-55
2021/01/27 01:15:01;;;;;;;99.87;33.43;;;-2.70;99.90;;;;;;4352309;28;661722;-51
2021/01/27 01:17:48;;;;;;;87.97;27.87;;;-2.60;99.90;;;;;;4365278;28;661910;-53
2021/01/27 01:20:36;;;;;;;91.60;30.87;;;-2.50;99.90;;;;;;4333848;28;661512;-52
2021/01/27 01:23:23;;;;;;;95.65;30.90;;;-2.60;99.90;;;;;;4354827;28;660403;-55
2021/01/27 01:26:10;;;;;;;82.17;28.63;;;-2.70;99.90;;;;;;4338753;28;661074;-54
2021/01/27 01:28:57;;;;;;;85.37;27.00;;;-2.80;99.90;;;;;;4364853;28;663078;-49
2021/01/27 01:31:44;;;;;;;41.33;16.20;;;-2.80;99.90;;;;;;4356754;28;660608;-53
2021/01/27 01:34:32;;;;;;;67.80;23.67;;;-2.70;99.90;;;;;;4368181;28;662546;-49
2021/01/27 01:37:20;;;;;;;78.53;28.20;;;-2.60;99.90;;;;;;4378170;28;660829;-55
2021/01/27 01:40:08;;;;;;;69.33;24.30;;;-2.70;99.90;;;;;;4383360;28;662182;-54
2021/01/27 01:43:03;;;;;;;49.47;14.52;;;-2.60;99.90;;;;;;4349894;28;661321;-53
2021/01/27 01:45:51;;;;;;;46.17;15.90;;;-2.60;99.90;;;;;;4335212;28;662841;-52
2021/01/27 01:48:40;;;;;;;76.82;23.77;;;-2.60;99.90;;;;;;4368685;28;661895;-57
2021/01/27 01:51:30;;;;;;;78.63;26.25;;;-2.60;99.90;;;;;;4344864;28;662727;-56
2021/01/27 01:54:21;;;;;;;69.57;24.73;;;-2.50;99.90;;;;;;4353028;28;661350;-54
2021/01/27 01:57:10;;;;;;;72.63;23.83;;;-2.50;99.90;;;;;;4357273;28;661877;-52
2021/01/27 01:59:59;;;;;;;71.23;26.03;;;-2.70;99.90;;;;;;4362281;28;661368;-54
2021/01/27 02:02:46;;;;;;;62.93;21.37;;;-2.70;99.90;;;;;;4343512;28;662669;-51
2021/01/27 02:05:33;;;;;;;52.17;19.33;;;-2.60;99.90;;;;;;4377335;28;660967;-54
2021/01/27 02:08:20;;;;;;;71.83;23.07;;;-2.50;99.90;;;;;;4374094;28;660911;-53
2021/01/27 02:11:07;;;;;;;60.93;22.97;;;-2.60;99.90;;;;;;4370695;28;662303;-54
2021/01/27 02:14:09;;;;;;;55.73;16.93;;;-2.70;99.90;;;;;;4334383;28;661583;-53
2021/01/27 02:17:00;;;;;;;58.93;22.33;;;-2.60;99.90;;;;;;4326423;28;662787;-54
2021/01/27 02:20:31;;;;;;;42.53;16.87;;;-2.60;99.90;;;;;;4344482;28;662239;-51
2021/01/27 02:23:45;;;;;;;66.93;23.07;;;-2.50;99.90;;;;;;4341888;28;660737;-56
2021/01/27 02:27:01;;;;;;;42.07;14.53;;;-2.70;99.90;;;;;;4334256;28;661967;-54
2021/01/27 02:29:56;;;;;;;47.37;17.07;;;-2.60;99.90;;;;;;4347287;28;661580;-56
2021/01/27 02:33:13;;;;;;;33.60;14.03;;;-2.60;99.90;;;;;;4356905;28;661392;-55
2021/01/27 02:36:05;;;;;;;44.60;17.30;;;-2.30;99.90;;;;;;4340679;28;662845;-50
2021/01/27 02:38:55;;;;;;;50.67;20.20;;;-2.30;99.90;;;;;;4351525;28;661073;-53
2021/01/27 02:41:44;;;;;;;27.17;10.63;;;-2.20;99.90;;;;;;4354453;28;662511;-55
2021/01/27 02:44:33;;;;;;;58.67;22.23;;;-2.20;99.90;;;;;;4346847;28;662633;-50
2021/01/27 02:47:22;;;;;;;14.77;5.33;;;-2.30;99.90;;;;;;4359116;28;661002;-52
2021/01/27 02:50:11;;;;;;;38.10;14.07;;;-2.40;99.90;;;;;;4369679;28;659737;-55
2021/01/27 02:53:02;;;;;;;63.60;24.47;;;-2.30;99.90;;;;;;4388269;28;662323;-52
2021/01/27 02:55:53;;;;;;;26.43;10.53;;;-2.30;99.90;;;;;;4346801;28;661102;-57
2021/01/27 02:58:42;;;;;;;47.30;18.27;;;-2.30;99.90;;;;;;4343265;28;661776;-53
2021/01/27 03:01:35;;;;;;;62.30;23.80;;;-2.30;99.90;;;;;;4364764;28;661711;-55
2021/01/27 03:04:24;;;;;;;55.23;21.40;;;-2.30;99.90;;;;;;4331284;28;662132;-54
2021/01/27 03:07:11;;;;;;;51.90;18.13;;;-2.40;99.90;;;;;;4341416;28;661872;-50
2021/01/27 03:10:05;;;;;;;71.83;25.57;;;-2.40;99.90;;;;;;4371361;28;660458;-50
2021/01/27 03:12:52;;;;;;;31.03;12.10;;;-2.50;99.90;;;;;;4350300;28;661129;-54
2021/01/27 03:15:39;;;;;;;63.10;23.20;;;-2.50;99.90;;;;;;4358769;28;661610;-56
2021/01/27 03:18:30;;;;;;;59.33;22.60;;;-2.30;99.90;;;;;;4370634;28;662205;-55
2021/01/27 03:21:20;;;;;;;53.93;20.27;;;-2.30;99.90;;;;;;4343775;28;662397;-52
2021/01/27 03:24:11;;;;;;;61.07;23.03;;;-2.30;99.90;;;;;;4336760;28;661471;-52
2021/01/27 03:27:00;;;;;;;32.23;12.27;;;-2.30;99.90;;;;;;4361475;28;661499;-54
2021/01/27 03:29:49;;;;;;;58.77;21.23;;;-2.30;99.90;;;;;;4354803;28;662184;-52
2021/01/27 03:32:40;;;;;;;53.13;20.00;;;-2.30;99.90;;;;;;4372880;28;662380;-54
2021/01/27 03:35:33;;;;;;;37.87;13.17;;;-2.40;99.90;;;;;;4348377;28;661773;-53
2021/01/27 03:38:22;;;;;;;58.30;19.90;;;-2.20;99.90;;;;;;4325808;28;663178;-54
2021/01/27 03:41:12;;;;;;;60.95;23.55;;;-2.10;99.90;;;;;;4358873;28;660547;-53
2021/01/27 03:44:02;;;;;;;51.87;21.20;;;-2.20;99.90;;;;;;4362514;28;661885;-56
2021/01/27 03:46:53;;;;;;;158.93;26.65;;;-2.20;99.90;;;;;;4352671;28;660605;-58
2021/01/27 03:49:51;;;;;;;57.67;22.33;;;-2.20;99.90;;;;;;4351957;28;662302;-53
2021/01/27 03:52:39;;;;;;;43.40;18.23;;;-2.20;99.90;;;;;;4348769;28;660819;-56
2021/01/27 03:55:30;;;;;;;50.63;18.67;;;-2.20;99.90;;;;;;4348726;28;662275;-55
2021/01/27 03:58:19;;;;;;;57.83;21.20;;;-2.20;99.90;;;;;;4344418;28;661906;-55
2021/01/27 04:01:08;;;;;;;33.53;12.90;;;-2.20;99.90;;;;;;4352300;28;662018;-52
2021/01/27 04:03:55;;;;;;;52.43;20.50;;;-2.00;99.90;;;;;;4347773;28;660952;-51
2021/01/27 04:06:42;;;;;;;51.73;22.23;;;-2.10;99.90;;;;;;4379277;28;661684;-54
2021/01/27 04:09:29;;;;;;;57.57;21.97;;;-2.10;99.90;;;;;;4351204;28;660769;-56
2021/01/27 04:12:16;;;;;;;56.33;23.80;;;-2.00;99.90;;;;;;4369561;28;660717;-49
2021/01/27 04:15:04;;;;;;;63.20;24.03;;;-2.00;99.90;;;;;;4363848;28;660443;-52
2021/01/27 04:17:52;;;;;;;49.47;20.47;;;-2.10;99.90;;;;;;4341097;28;662774;-48
2021/01/27 04:20:39;;;;;;;58.30;23.33;;;-2.20;99.90;;;;;;4359126;28;661959;-58
2021/01/27 04:23:26;;;;;;;56.70;22.27;;;-2.10;99.90;;;;;;4364723;28;660781;-53
2021/01/27 04:26:13;;;;;;;56.83;21.83;;;-2.00;99.90;;;;;;4363677;28;660969;-54
2021/01/27 04:29:00;;;;;;;126.23;24.60;;;-1.80;99.90;;;;;;4359142;28;661080;-52
2021/01/27 04:31:47;;;;;;;61.97;24.93;;;-2.00;99.90;;;;;;4354554;28;663239;-54
2021/01/27 04:34:35;;;;;;;57.70;22.77;;;-2.10;99.90;;;;;;4340665;28;660703;-57
2021/01/27 04:37:22;;;;;;;34.10;13.60;;;-2.00;99.90;;;;;;4355286;28;662873;-56
2021/01/27 04:40:10;;;;;;;59.23;22.23;;;-2.00;99.90;;;;;;4351602;28;660699;-58
2021/01/27 04:42:57;;;;;;;52.73;21.73;;;-2.00;99.90;;;;;;4363902;28;661450;-52
2021/01/27 04:45:45;;;;;;;54.38;22.77;;;-2.00;99.90;;;;;;4348649;28;662288;-57
2021/01/27 04:48:36;;;;;;;38.70;16.60;;;-1.90;99.90;;;;;;4376035;28;661485;-56
2021/01/27 04:51:30;;;;;;;52.03;21.03;;;-1.90;99.90;;;;;;4334615;28;661573;-56
2021/01/27 04:54:25;;;;;;;53.55;22.33;;;-2.00;99.90;;;;;;4336967;28;661920;-55
2021/01/27 04:57:23;;;;;;;20.47;9.63;;;-1.90;99.90;;;;;;4353199;28;661574;-52
2021/01/27 05:00:26;;;;;;;20.00;7.90;;;-1.80;99.90;;;;;;4318542;28;659977;-52
2021/01/27 05:03:30;;;;;;;49.95;19.73;;;-1.80;99.90;;;;;;4347748;28;661056;-53
2021/01/27 05:06:20;;;;;;;59.47;20.30;;;-1.80;99.90;;;;;;4347568;28;662503;-54
2021/01/27 05:09:09;;;;;;;50.27;20.47;;;-1.90;99.90;;;;;;4347194;28;662759;-56
2021/01/27 05:11:56;;;;;;;56.63;21.97;;;-1.90;99.90;;;;;;4344860;28;662379;-53
2021/01/27 05:14:45;;;;;;;51.50;21.33;;;-2.00;99.90;;;;;;4350810;28;660272;-53
2021/01/27 05:17:32;;;;;;;49.50;20.83;;;-2.00;99.90;;;;;;4340617;28;661509;-54
2021/01/27 05:20:22;;;;;;;34.00;12.37;;;-2.00;99.90;;;;;;4344523;28;661086;-54
2021/01/27 05:23:09;;;;;;;46.53;18.57;;;-1.80;99.90;;;;;;4350632;28;660728;-56
2021/01/27 05:26:02;;;;;;;39.60;13.63;;;-1.90;99.90;;;;;;4363172;28;661395;-50
2021/01/27 05:28:54;;;;;;;25.80;10.67;;;-1.80;99.90;;;;;;4345484;28;660839;-57
2021/01/27 05:32:04;;;;;;;37.80;15.67;;;-1.70;99.90;;;;;;4352453;28;663128;-54
2021/01/27 05:34:52;;;;;;;40.30;15.30;;;-1.70;99.90;;;;;;4317770;28;661544;-56
2021/01/27 05:37:39;;;;;;;53.97;21.20;;;-1.90;99.90;;;;;;4361474;28;661114;-57
2021/01/27 05:40:33;;;;;;;21.27;7.87;;;-2.00;99.90;;;;;;4371019;28;660735;-53
2021/01/27 05:43:25;;;;;;;31.67;13.00;;;-2.00;99.90;;;;;;4335659;28;660972;-56
2021/01/27 05:46:14;;;;;;;43.97;17.70;;;-1.80;99.90;;;;;;4340779;28;661555;-51
2021/01/27 05:49:01;;;;;;;46.63;19.20;;;-2.00;99.90;;;;;;4354183;28;662823;-54
2021/01/27 05:51:49;;;;;;;24.57;10.20;;;-2.00;99.90;;;;;;4368510;28;660458;-54
2021/01/27 05:54:36;;;;;;;39.57;15.67;;;-1.90;99.90;;;;;;4345364;28;661860;-52
2021/01/27 05:57:26;;;;;;;21.07;7.27;;;-1.70;99.90;;;;;;4364496;28;660722;-55
2021/01/27 06:00:23;;;;;;;38.50;14.73;;;-1.70;99.90;;;;;;4346978;28;659862;-55
2021/01/27 06:03:10;;;;;;;38.07;16.50;;;-1.80;99.90;;;;;;4325054;28;661710;-54
2021/01/27 06:05:57;;;;;;;39.33;14.93;;;-1.70;99.90;;;;;;4369211;28;662345;-52
2021/01/27 06:08:51;;;;;;;49.25;19.92;;;-1.60;99.90;;;;;;4347730;28;662007;-55
2021/01/27 06:11:38;;;;;;;44.10;18.63;;;-1.80;99.90;;;;;;4342326;28;661808;-53
2021/01/27 06:14:25;;;;;;;55.40;19.80;;;-1.90;99.90;;;;;;4344459;28;661294;-54
2021/01/27 06:17:18;;;;;;;30.83;12.10;;;-1.90;99.90;;;;;;4374180;28;661766;-55
2021/01/27 06:20:24;;;;;;;47.73;20.43;;;-1.80;99.90;;;;;;4331903;28;661920;-56
2021/01/27 06:23:33;;;;;;;41.47;17.40;;;-1.70;99.90;;;;;;4321395;28;662850;-55
2021/01/27 06:27:05;;;;;;;45.47;19.47;;;-1.70;99.90;;;;;;4323649;28;662045;-54
2021/01/27 06:30:36;;;;;;;32.97;14.10;;;-1.50;99.90;;;;;;4194894;29;662550;-52
2021/01/27 06:33:56;;;;;;;51.20;21.63;;;-1.50;99.90;;;;;;4229023;29;661014;-53
2021/01/27 06:37:03;;;;;;;53.90;20.05;;;-1.60;99.90;;;;;;4227310;29;661111;-58
2021/01/27 06:40:34;;;;;;;47.77;20.07;;;-1.70;99.90;;;;;;4202110;29;661410;-55
2021/01/27 06:43:34;;;;;;;58.70;21.67;;;-1.80;99.90;;;;;;4111440;30;662241;-54
2021/01/27 06:46:29;;;;;;;55.40;24.00;;;-1.60;99.90;;;;;;4124458;30;662248;-53
2021/01/27 06:49:33;;;;;;;54.30;22.57;;;-1.60;99.90;;;;;;4143867;30;661162;-52
2021/01/27 06:53:02;;;;;;;58.67;23.10;;;-1.50;99.90;;;;;;4135926;30;661842;-54
2021/01/27 06:55:58;;;;;;;48.53;19.90;;;-1.50;99.90;;;;;;4072308;30;660555;-58
2021/01/27 07:03:00;;;;;;;42.20;16.30;;;-1.30;99.90;;;;;;4031652;30;661981;-58
2021/01/27 07:09:12;;;;;;;55.77;22.63;;;-1.30;99.90;;;;;;4069217;29;661564;-54
2021/01/27 07:12:08;;;;;;;39.17;15.50;;;-1.30;99.90;;;;;;4159626;29;661485;-59
2021/01/27 07:15:05;;;;;;;34.43;15.13;;;-1.20;99.90;;;;;;4162402;29;661147;-56
2021/01/27 07:18:11;;;;;;;33.33;12.03;;;-1.20;99.90;;;;;;4168372;29;661952;-53
2021/01/27 07:20:59;;;;;;;51.80;20.30;;;-1.00;99.90;;;;;;4192469;29;662173;-54
2021/01/27 07:23:50;;;;;;;57.33;19.90;;;-1.00;99.90;;;;;;4194688;29;662485;-58
2021/01/27 07:26:39;;;;;;;19.17;8.57;;;-0.90;99.90;;;;;;4204254;29;661492;-60
2021/01/27 07:29:30;;;;;;;15.93;6.33;;;-0.70;99.90;;;;;;4187741;29;661827;-60
2021/01/27 07:32:20;;;;;;;35.97;16.57;;;-0.60;99.90;;;;;;4175302;29;659965;-60
2021/01/27 07:35:10;;;;;;;48.80;18.77;;;-0.50;99.90;;;;;;4202055;29;662582;-60
2021/01/27 07:37:59;;;;;;;39.00;15.97;;;-0.60;99.90;;;;;;4287043;29;662778;-59
2021/01/27 07:40:49;;;;;;;52.70;21.02;;;-0.50;99.90;;;;;;4299069;29;661716;-60
2021/01/27 07:43:39;;;;;;;47.83;19.43;;;-0.60;99.90;;;;;;4341125;28;662347;-59
2021/01/27 07:46:30;;;;;;;49.92;20.42;;;-0.70;99.90;;;;;;4342304;28;661652;-60
2021/01/27 07:49:21;;;;;;;50.50;19.25;;;-0.70;99.90;;;;;;4341467;28;661518;-60
2021/01/27 07:52:14;;;;;;;46.97;19.60;;;-0.70;99.90;;;;;;4333658;28;660692;-60
2021/01/27 07:55:06;;;;;;;35.03;12.90;;;-0.60;99.90;;;;;;4351934;28;661697;-60
2021/01/27 07:57:58;;;;;;;18.80;8.87;;;-0.60;99.90;;;;;;4350935;28;661022;-60
2021/01/27 08:00:52;;;;;;;38.88;16.05;;;-0.50;99.90;;;;;;4324770;28;661084;-60
2021/01/27 08:03:45;;;;;;;20.70;8.03;;;-0.50;99.90;;;;;;4325575;28;660940;-60
2021/01/27 08:06:41;;;;;;;40.70;17.60;;;-0.40;99.90;;;;;;4348835;28;660201;-60
2021/01/27 08:09:37;;;;;;;28.50;12.57;;;-0.40;99.90;;;;;;4342314;28;660501;-59
2021/01/27 08:12:28;;;;;;;30.03;12.37;;;-0.30;99.90;;;;;;4323215;28;661454;-61
2021/01/27 08:15:35;;;;;;;42.97;17.10;;;-0.30;99.90;;;;;;4355084;28;661079;-60
2021/01/27 08:18:23;;;;;;;35.47;15.90;;;-0.40;99.90;;;;;;4346747;28;661842;-60
2021/01/27 08:21:26;;;;;;;37.67;14.70;;;-0.50;99.90;;;;;;4340736;28;661384;-60
2021/01/27 08:24:49;;;;;;;40.50;16.37;;;-0.40;99.90;;;;;;4332025;28;661085;-59
2021/01/27 08:27:37;;;;;;;31.47;14.77;;;-0.40;99.90;;;;;;4323160;28;662142;-60
2021/01/27 08:30:25;;;;;;;34.40;13.50;;;-0.50;99.90;;;;;;4344256;28;661082;-61
2021/01/27 08:33:41;;;;;;;39.17;14.10;;;-0.60;99.90;;;;;;4366579;28;662604;-59
2021/01/27 08:37:10;;;;;;;37.17;14.50;;;-0.60;99.90;;;;;;4337633;28;660520;-59
2021/01/27 08:40:11;;;;;;;20.17;6.80;;;-0.60;99.90;;;;;;4344146;28;661859;-60
2021/01/27 08:42:59;;;;;;;24.17;10.67;;;-0.70;99.90;;;;;;4340415;28;659686;-60
2021/01/27 08:45:46;;;;;;;21.43;8.77;;;-0.60;99.90;;;;;;4347311;28;661518;-60
2021/01/27 08:48:48;;;;;;;13.47;5.30;;;-0.50;99.90;;;;;;4364915;28;659560;-59
2021/01/27 08:51:50;;;;;;;20.17;8.47;;;-0.30;99.90;;;;;;4325454;28;660893;-60
2021/01/27 08:54:55;;;;;;;11.75;4.55;;;-0.10;99.90;;;;;;4344512;28;660478;-59
2021/01/27 08:57:43;;;;;;;18.80;8.57;;;0.00;99.90;;;;;;4348814;28;660476;-60
2021/01/27 09:00:42;;;;;;;23.90;9.60;;;0.10;99.90;;;;;;4352304;28;659910;-60
2021/01/27 09:04:04;;;;;;;21.40;9.23;;;0.30;99.90;;;;;;4324451;28;658970;-61
2021/01/27 09:06:51;;;;;;;13.40;5.83;;;0.50;99.90;;;;;;4320741;28;660231;-60
2021/01/27 09:09:39;;;;;;;19.37;7.17;;;0.70;99.90;;;;;;4358549;28;659150;-60
2021/01/27 09:12:27;;;;;;;17.83;7.90;;;0.80;99.90;;;;;;4351412;28;660417;-60
2021/01/27 09:15:24;;;;;;;16.80;7.53;;;1.00;99.90;;;;;;4350877;28;658711;-61
2021/01/27 09:18:13;;;;;;;12.07;4.97;;;1.00;99.90;;;;;;4338025;28;659393;-60
2021/01/27 09:21:13;;;;;;;18.73;6.53;;;0.90;97.20;;;;;;4332293;28;658609;-61
2021/01/27 09:24:01;;;;;;;10.93;5.13;;;0.90;97.70;;;;;;4327303;28;660124;-61
2021/01/27 09:26:50;;;;;;;17.33;6.90;;;0.90;98.90;;;;;;4365422;28;658396;-60
2021/01/27 09:29:37;;;;;;;14.07;6.57;;;0.90;99.00;;;;;;4330643;28;659517;-60
2021/01/27 09:32:24;;;;;;;17.60;7.03;;;1.00;97.20;;;;;;4347467;28;658858;-62
2021/01/27 09:35:16;;;;;;;19.23;7.40;;;0.90;99.90;;;;;;4367419;28;658496;-60
2021/01/27 09:38:06;;;;;;;16.20;6.53;;;0.70;99.90;;;;;;4348783;28;658836;-59
2021/01/27 09:40:54;;;;;;;14.20;5.97;;;0.50;99.90;;;;;;4341095;28;659492;-60
2021/01/27 09:43:42;;;;;;;19.13;7.13;;;0.60;99.90;;;;;;4349671;28;659771;-59
2021/01/27 09:46:31;;;;;;;19.50;7.77;;;0.90;99.90;;;;;;4337509;28;658615;-61
2021/01/27 09:49:18;;;;;;;17.67;7.13;;;0.80;99.90;;;;;;4357225;28;658660;-60
2021/01/27 09:52:05;;;;;;;18.90;7.23;;;0.60;97.90;;;;;;4355902;28;658686;-60
2021/01/27 09:54:55;;;;;;;19.63;8.60;;;0.60;99.90;;;;;;4366797;28;660318;-60
2021/01/27 09:57:43;;;;;;;19.97;8.67;;;0.80;99.90;;;;;;4354108;28;660087;-60
2021/01/27 10:00:32;;;;;;;14.23;6.40;;;1.00;98.60;;;;;;4351606;28;659020;-60
2021/01/27 10:03:27;;;;;;;17.77;6.80;;;1.00;94.80;;;;;;4346855;28;658924;-61
2021/01/27 10:06:37;;;;;;;18.57;8.03;;;0.50;99.20;;;;;;4342879;28;659535;-62
2021/01/27 10:09:25;;;;;;;14.40;5.63;;;0.40;99.90;;;;;;4346617;28;659231;-62
2021/01/27 10:12:19;;;;;;;21.33;8.40;;;0.50;99.90;;;;;;4367960;28;659783;-59
2021/01/27 10:15:13;;;;;;;18.30;7.90;;;0.40;99.90;;;;;;4350309;28;659229;-60
2021/01/27 10:18:06;;;;;;;14.17;6.50;;;0.20;99.90;;;;;;4326994;28;659727;-60
2021/01/27 10:21:00;;;;;;;16.33;7.40;;;0.10;99.90;;;;;;4349559;28;659306;-59
2021/01/27 10:23:48;;;;;;;11.70;3.27;;;-0.10;99.90;;;;;;4337484;28;659791;-60
2021/01/27 10:26:37;;;;;;;17.93;7.73;;;0.10;99.90;;;;;;4330463;28;659800;-60
2021/01/27 10:29:31;;;;;;;19.30;8.13;;;0.10;99.90;;;;;;4378444;28;658680;-61
2021/01/27 10:32:36;;;;;;;9.03;4.33;;;0.10;99.90;;;;;;4349208;28;658782;-59
2021/01/27 10:35:32;;;;;;;23.93;10.20;;;0.20;99.90;;;;;;4346006;28;658836;-60
2021/01/27 10:38:22;;;;;;;26.80;8.47;;;0.10;99.90;;;;;;4323798;28;660206;-61
2021/01/27 10:41:11;;;;;;;16.27;6.55;;;0.10;99.90;;;;;;4361090;28;661103;-61
2021/01/27 10:44:23;;;;;;;15.47;6.60;;;-0.10;99.90;;;;;;4369418;28;658794;-60
2021/01/27 10:47:21;;;;;;;13.47;6.03;;;-0.10;99.90;;;;;;4333816;28;659451;-60
2021/01/27 10:50:10;;;;;;;16.63;6.67;;;-0.20;99.90;;;;;;4347555;28;660104;-60
2021/01/27 10:52:57;;;;;;;21.20;7.50;;;-0.20;99.90;;;;;;4348087;28;661871;-60
2021/01/27 10:55:46;;;;;;;17.83;7.50;;;-0.20;99.90;;;;;;4354418;28;659604;-61
2021/01/27 10:58:33;;;;;;;15.13;6.53;;;-0.30;99.90;;;;;;4360635;28;662322;-60
2021/01/27 11:01:20;;;;;;;14.05;6.68;;;-0.30;99.90;;;;;;4350908;28;660897;-61
2021/01/27 11:04:08;;;;;;;21.83;8.27;;;-0.30;99.90;;;;;;4373141;28;661183;-59
2021/01/27 11:06:55;;;;;;;22.53;8.37;;;-0.30;99.90;;;;;;4332076;28;659697;-60
2021/01/27 11:09:42;;;;;;;17.70;7.87;;;-0.40;99.90;;;;;;4377273;28;660461;-60
2021/01/27 11:12:29;;;;;;;21.40;9.52;;;-0.30;99.90;;;;;;4358388;28;659895;-61
2021/01/27 11:15:17;;;;;;;22.73;8.83;;;-0.30;99.90;;;;;;4363498;28;661278;-60
2021/01/27 11:18:04;;;;;;;19.75;8.70;;;-0.30;99.90;;;;;;4353104;28;660987;-61
2021/01/27 11:20:52;;;;;;;21.37;8.23;;;-0.10;99.90;;;;;;4359090;28;661432;-60
2021/01/27 11:23:39;;;;;;;14.83;6.77;;;-0.10;99.90;;;;;;4350879;28;660196;-61
2021/01/27 11:26:26;;;;;;;11.03;5.07;;;-0.10;99.90;;;;;;4373381;28;659858;-59
2021/01/27 11:29:13;;;;;;;14.25;5.53;;;-0.10;99.90;;;;;;4358036;28;659333;-60
2021/01/27 11:32:00;;;;;;;20.98;7.53;;;-0.30;99.90;;;;;;4345704;28;660046;-60
2021/01/27 11:34:47;;;;;;;16.25;7.38;;;-0.40;99.90;;;;;;4370451;28;661117;-60
2021/01/27 11:37:35;;;;;;;18.02;6.97;;;-0.30;99.90;;;;;;4334515;28;662150;-61
2021/01/27 11:40:23;;;;;;;19.63;7.10;;;-0.20;99.90;;;;;;4364585;28;661249;-60
2021/01/27 11:43:10;;;;;;;14.87;6.27;;;-0.10;99.90;;;;;;4346561;28;659706;-59
2021/01/27 11:45:57;;;;;;;15.93;7.37;;;-0.10;99.90;;;;;;4374663;28;661605;-60
2021/01/27 11:48:44;;;;;;;17.73;6.80;;;-0.10;99.90;;;;;;4351503;28;659477;-60
2021/01/27 11:51:31;;;;;;;21.47;6.83;;;0.30;99.90;;;;;;4375261;28;661053;-59
2021/01/27 11:54:19;;;;;;;17.23;7.37;;;0.30;99.90;;;;;;4369378;28;658345;-59
2021/01/27 11:57:06;;;;;;;15.77;6.93;;;0.30;99.90;;;;;;4352976;28;660110;-60
2021/01/27 11:59:53;;;;;;;17.73;6.83;;;0.50;99.90;;;;;;4364190;28;658334;-60
2021/01/27 12:02:40;;;;;;;16.80;7.90;;;0.50;99.90;;;;;;4353864;28;659007;-60
2021/01/27 12:05:27;;;;;;;13.07;3.97;;;0.50;99.90;;;;;;4363377;28;660149;-59
2021/01/27 12:08:15;;;;;;;19.30;7.07;;;0.40;99.90;;;;;;4346987;28;659100;-61
2021/01/27 12:11:03;;;;;;;20.93;8.03;;;0.40;99.90;;;;;;4376150;28;660107;-59
2021/01/27 12:13:50;;;;;;;23.75;7.75;;;0.40;99.90;;;;;;4351224;28;659217;-60
2021/01/27 12:16:37;;;;;;;16.55;7.22;;;0.40;99.90;;;;;;4369611;28;659961;-60
2021/01/27 12:19:24;;;;;;;13.57;6.13;;;0.40;99.90;;;;;;4351731;28;658870;-62
2021/01/27 12:22:11;;;;;;;12.47;4.00;;;0.50;99.90;;;;;;4373086;28;658059;-60
2021/01/27 12:24:58;;;;;;;16.63;7.07;;;0.70;99.90;;;;;;4369851;28;658830;-60
2021/01/27 12:27:46;;;;;;;16.50;7.20;;;0.90;99.90;;;;;;4351981;28;659220;-60
2021/01/27 12:30:33;;;;;;;17.63;5.83;;;0.90;99.90;;;;;;4352617;28;659118;-60
2021/01/27 12:33:20;;;;;;;14.07;5.33;;;0.80;99.90;;;;;;4328622;28;659966;-61
2021/01/27 12:36:07;;;;;;;17.63;7.17;;;0.70;99.90;;;;;;4349384;28;659719;-59
2021/01/27 12:38:54;;;;;;;18.42;7.93;;;0.60;99.90;;;;;;4339826;28;658979;-60
2021/01/27 12:41:41;;;;;;;17.60;7.27;;;0.60;99.90;;;;;;4354670;28;658383;-59
2021/01/27 12:44:29;;;;;;;20.17;7.67;;;0.60;99.90;;;;;;4352717;28;658436;-59
2021/01/27 12:47:22;;;;;;;20.67;8.48;;;0.70;99.90;;;;;;4334983;28;659915;-60
2021/01/27 12:50:10;;;;;;;12.63;4.40;;;0.60;99.90;;;;;;4348929;28;658734;-61
2021/01/27 12:52:57;;;;;;;20.10;7.63;;;0.50;99.90;;;;;;4351205;28;660005;-60
2021/01/27 12:55:44;;;;;;;24.67;9.03;;;0.40;99.90;;;;;;4345526;28;658672;-61
2021/01/27 12:58:31;;;;;;;25.77;9.30;;;0.40;99.90;;;;;;4355614;28;658188;-61
2021/01/27 13:01:20;;;;;;;23.17;9.53;;;0.50;99.90;;;;;;4350203;28;658529;-60
2021/01/27 13:04:07;;;;;;;27.07;10.23;;;0.60;99.90;;;;;;4330500;28;659327;-60
2021/01/27 13:06:54;;;;;;;24.30;9.05;;;0.60;99.90;;;;;;4331231;28;660025;-61
2021/01/27 13:09:42;;;;;;;24.63;9.27;;;0.50;99.90;;;;;;4359426;28;658421;-59
2021/01/27 13:12:29;;;;;;;17.53;7.70;;;0.50;99.90;;;;;;4350950;28;658565;-62
2021/01/27 13:15:18;;;;;;;24.00;8.88;;;0.50;99.90;;;;;;4341396;28;658724;-59
2021/01/27 13:18:06;;;;;;;21.40;8.33;;;0.70;99.90;;;;;;4333507;28;658528;-61
2021/01/27 13:20:53;;;;;;;24.90;9.30;;;0.70;99.90;;;;;;4343610;28;659000;-60
2021/01/27 13:23:40;;;;;;;21.87;9.27;;;0.60;99.90;;;;;;4326367;28;660892;-61
2021/01/27 13:26:27;;;;;;;18.13;6.73;;;0.80;99.90;;;;;;4357121;28;659540;-60
2021/01/27 13:29:14;;;;;;;21.95;9.20;;;0.70;99.90;;;;;;4337913;28;658639;-62
2021/01/27 13:32:01;;;;;;;12.30;5.73;;;0.70;99.90;;;;;;4364069;28;660144;-60
2021/01/27 13:34:49;;;;;;;23.37;9.97;;;0.60;99.90;;;;;;4360071;28;658732;-59
2021/01/27 13:37:36;;;;;;;28.05;11.40;;;0.50;99.90;;;;;;4354736;28;659266;-61
2021/01/27 13:40:23;;;;;;;27.63;11.93;;;0.30;99.90;;;;;;4384975;28;659971;-60
2021/01/27 13:43:10;;;;;;;29.33;11.90;;;0.10;99.90;;;;;;4356287;28;659854;-60
2021/01/27 13:45:57;;;;;;;35.30;11.83;;;0.00;99.90;;;;;;4371408;28;661072;-59
2021/01/27 13:48:46;;;;;;;32.07;11.97;;;-0.10;99.90;;;;;;4345653;28;659677;-61
2021/01/27 13:51:34;;;;;;;32.90;11.87;;;-0.20;99.90;;;;;;4344362;28;661680;-60
2021/01/27 13:54:21;;;;;;;29.47;12.33;;;-0.30;99.90;;;;;;4360315;28;661904;-60
2021/01/27 13:57:08;;;;;;;31.63;11.90;;;-0.40;99.90;;;;;;4382230;28;661736;-60
2021/01/27 13:59:55;;;;;;;31.90;13.50;;;-0.20;99.90;;;;;;4331602;28;661471;-60
2021/01/27 14:02:42;;;;;;;33.23;13.07;;;-0.30;99.90;;;;;;4378840;28;662333;-59
2021/01/27 14:05:29;;;;;;;32.50;14.70;;;-0.30;99.90;;;;;;4351941;28;660753;-61
2021/01/27 14:08:17;;;;;;;35.00;14.80;;;-0.30;99.90;;;;;;4364876;28;660576;-60
2021/01/27 14:11:04;;;;;;;38.30;15.60;;;-0.30;99.90;;;;;;4352310;28;660693;-61
2021/01/27 14:13:51;;;;;;;37.88;16.50;;;-0.40;99.90;;;;;;4377973;28;660316;-60
2021/01/27 14:16:38;;;;;;;37.63;14.43;;;-0.30;99.90;;;;;;4355856;28;660793;-59
2021/01/27 14:19:25;;;;;;;42.20;16.63;;;-0.20;99.90;;;;;;4331989;28;660314;-60
2021/01/27 14:22:12;;;;;;;36.80;15.73;;;-0.20;99.90;;;;;;4365729;28;660998;-60
2021/01/27 14:25:00;;;;;;;37.73;15.80;;;-0.10;99.90;;;;;;4348434;28;660792;-61
2021/01/27 14:27:49;;;;;;;38.40;14.82;;;-0.10;99.90;;;;;;4367480;28;661371;-60
2021/01/27 14:30:40;;;;;;;40.70;14.90;;;-0.10;99.90;;;;;;4330753;28;661226;-60
2021/01/27 14:33:27;;;;;;;46.87;17.33;;;0.00;99.90;;;;;;4327880;28;662564;-60